sensor_id;sensor_type;location;lat;lon;timestamp;pressure;altitude;pressure_sealevel;temperature;humidity
10093;BME280;5085;48.092;11.484;2022-10-31T00:01:24;95602.72;;;9.22;100.00
10093;BME280;5085;48.092;11.484;2022-10-31T00:03:50;95605.66;;;9.21;100.00
10093;BME280;5085;48.092;11.484;2022-10-31T00:06:17;95604.03;;;9.20;100.00
10093;BME280;5085;48.092;11.484;2022-10-31T00:08:46;95604.03;;;9.20;100.00
10093;BME280;5085;48.092;11.484;2022-10-31T00:11:13;95601.34;;;9.20;100.00
10093;BME280;5085;48.092;11.484;2022-10-31T00:13:39;95601.34;;;9.20;100.00
10093;BME280;5085;48.092;11.484;2022-10-31T00:16:12;95594.59;;;9.17;100.00
10093;BME280;5085;48.092;11.484;2022-10-31T00:18:38;95602.13;;;9.15;100.00
10093;BME280;5085;48.092;11.484;2022-10-31T00:21:04;95590.84;;;9.13;100.00
10093;BME280;5085;48.092;11.484;2022-10-31T00:23:30;95598.31;;;9.11;100.00
10093;BME280;5085;48.092;11.484;2022-10-31T00:26:04;95592.41;;;9.09;100.00
10093;BME280;5085;48.092;11.484;2022-10-31T00:28:30;95599.13;;;9.12;100.00
10093;BME280;5085;48.092;11.484;2022-10-31T00:31:01;95595.09;;;9.09;100.00
10093;BME280;5085;48.092;11.484;2022-10-31T00:33:28;95591.28;;;9.05;100.00
10093;BME280;5085;48.092;11.484;2022-10-31T00:35:54;95586.41;;;9.02;100.00
10093;BME280;5085;48.092;11.484;2022-10-31T00:38:21;95595.28;;;9.02;100.00
10093;BME280;5085;48.092;11.484;2022-10-31T00:40:47;95589.91;;;9.02;100.00
10093;BME280;5085;48.092;11.484;2022-10-31T00:43:13;95596.56;;;9.00;100.00
10093;BME280;5085;48.092;11.484;2022-10-31T00:45:41;95599.78;;;8.97;100.00
10093;BME280;5085;48.092;11.484;2022-10-31T00:48:08;95595.72;;;8.94;100.00
10093;BME280;5085;48.092;11.484;2022-10-31T00:50:34;95599.22;;;8.95;100.00
10093;BME280;5085;48.092;11.484;2022-10-31T00:53:00;95592.50;;;8.92;100.00
10093;BME280;5085;48.092;11.484;2022-10-31T00:55:26;95606.97;;;8.91;100.00
10093;BME280;5085;48.092;11.484;2022-10-31T00:57:52;95594.06;;;8.88;100.00
10093;BME280;5085;48.092;11.484;2022-10-31T01:00:20;95599.44;;;8.88;100.00
10093;BME280;5085;48.092;11.484;2022-10-31T01:02:47;95594.28;;;8.87;100.00
10093;BME280;5085;48.092;11.484;2022-10-31T01:05:13;95599.94;;;8.85;100.00
10093;BME280;5085;48.092;11.484;2022-10-31T01:07:40;95590.78;;;8.86;100.00
10093;BME280;5085;48.092;11.484;2022-10-31T01:10:09;95582.19;;;8.84;100.00
10093;BME280;5085;48.092;11.484;2022-10-31T01:12:40;95582.19;;;8.84;100.00
10093;BME280;5085;48.092;11.484;2022-10-31T01:15:08;95583.50;;;8.82;100.00
10093;BME280;5085;48.092;11.484;2022-10-31T01:17:34;95584.56;;;8.81;100.00
10093;BME280;5085;48.092;11.484;2022-10-31T01:20:00;95590.16;;;8.79;100.00
10093;BME280;5085;48.092;11.484;2022-10-31T01:22:27;95593.94;;;8.78;100.00
10093;BME280;5085;48.092;11.484;2022-10-31T01:24:53;95590.44;;;8.77;100.00
10093;BME280;5085;48.092;11.484;2022-10-31T01:27:19;95594.47;;;8.75;100.00
10093;BME280;5085;48.092;11.484;2022-10-31T01:29:45;95600.88;;;8.74;100.00
10093;BME280;5085;48.092;11.484;2022-10-31T01:32:11;95597.38;;;8.73;100.00
10093;BME280;5085;48.092;11.484;2022-10-31T01:34:37;95593.56;;;8.69;100.00
10093;BME280;5085;48.092;11.484;2022-10-31T01:37:03;95593.81;;;8.68;100.00
10093;BME280;5085;48.092;11.484;2022-10-31T01:39:29;95587.34;;;8.64;100.00
10093;BME280;5085;48.092;11.484;2022-10-31T01:41:55;95590.03;;;8.64;100.00
10093;BME280;5085;48.092;11.484;2022-10-31T01:46:58;95583.84;;;8.63;100.00
10093;BME280;5085;48.092;11.484;2022-10-31T01:49:33;95583.59;;;8.65;100.00
10093;BME280;5085;48.092;11.484;2022-10-31T01:52:18;95588.13;;;8.64;100.00
10093;BME280;5085;48.092;11.484;2022-10-31T01:54:51;95585.72;;;8.63;100.00
10093;BME280;5085;48.092;11.484;2022-10-31T01:57:20;95584.66;;;8.64;100.00
10093;BME280;5085;48.092;11.484;2022-10-31T01:59:54;95584.66;;;8.64;100.00
10093;BME280;5085;48.092;11.484;2022-10-31T02:02:23;95581.97;;;8.64;100.00
10093;BME280;5085;48.092;11.484;2022-10-31T02:04:51;95586.53;;;8.63;100.00
10093;BME280;5085;48.092;11.484;2022-10-31T02:07:23;95592.13;;;8.62;100.00
10093;BME280;5085;48.092;11.484;2022-10-31T02:09:51;95586.75;;;8.62;100.00
10093;BME280;5085;48.092;11.484;2022-10-31T02:12:18;95590.50;;;8.61;100.00
10093;BME280;5085;48.092;11.484;2022-10-31T02:14:46;95585.41;;;8.59;100.00
10093;BME280;5085;48.092;11.484;2022-10-31T02:17:12;95589.16;;;8.58;100.00
10093;BME280;5085;48.092;11.484;2022-10-31T02:19:43;95585.09;;;8.56;100.00
10093;BME280;5085;48.092;11.484;2022-10-31T02:22:24;95586.16;;;8.55;100.00
10093;BME280;5085;48.092;11.484;2022-10-31T02:33:24;95582.59;;;8.49;100.00
10093;BME280;5085;48.092;11.484;2022-10-31T02:36:08;95576.19;;;8.50;100.00
10093;BME280;5085;48.092;11.484;2022-10-31T02:46:48;95580.97;;;8.48;100.00
10093;BME280;5085;48.092;11.484;2022-10-31T02:49:38;95585.53;;;8.47;100.00
10093;BME280;5085;48.092;11.484;2022-10-31T02:52:20;95584.97;;;8.45;100.00
10093;BME280;5085;48.092;11.484;2022-10-31T02:54:47;95583.59;;;8.43;100.00
10093;BME280;5085;48.092;11.484;2022-10-31T02:57:17;95588.97;;;8.43;100.00
10093;BME280;5085;48.092;11.484;2022-10-31T02:59:48;95585.69;;;8.41;100.00
10093;BME280;5085;48.092;11.484;2022-10-31T03:05:23;95588.91;;;8.38;100.00
10093;BME280;5085;48.092;11.484;2022-10-31T03:16:25;95596.34;;;8.36;100.00
10093;BME280;5085;48.092;11.484;2022-10-31T03:19:10;95590.16;;;8.35;100.00
10093;BME280;5085;48.092;11.484;2022-10-31T03:21:47;95595.22;;;8.32;100.00
10093;BME280;5085;48.092;11.484;2022-10-31T03:24:16;95582.31;;;8.29;100.00
10093;BME280;5085;48.092;11.484;2022-10-31T03:26:46;95590.03;;;8.25;100.00
10093;BME280;5085;48.092;11.484;2022-10-31T03:29:15;95587.38;;;8.25;100.00
10093;BME280;5085;48.092;11.484;2022-10-31T03:32:11;95587.38;;;8.25;100.00
10093;BME280;5085;48.092;11.484;2022-10-31T03:34:41;95591.09;;;8.24;100.00
10093;BME280;5085;48.092;11.484;2022-10-31T03:37:10;95582.22;;;8.23;100.00
10093;BME280;5085;48.092;11.484;2022-10-31T03:39:41;95590.28;;;8.23;100.00
10093;BME280;5085;48.092;11.484;2022-10-31T03:42:12;95584.09;;;8.23;100.00
10093;BME280;5085;48.092;11.484;2022-10-31T03:44:43;95584.38;;;8.21;100.00
10093;BME280;5085;48.092;11.484;2022-10-31T03:47:12;95584.84;;;8.18;100.00
10093;BME280;5085;48.092;11.484;2022-10-31T03:49:38;95586.19;;;8.16;100.00
10093;BME280;5085;48.092;11.484;2022-10-31T03:54:59;95588.28;;;8.14;100.00
10093;BME280;5085;48.092;11.484;2022-10-31T03:57:37;95591.22;;;8.12;100.00
10093;BME280;5085;48.092;11.484;2022-10-31T04:00:09;95591.72;;;8.09;100.00
10093;BME280;5085;48.092;11.484;2022-10-31T04:03:11;95593.00;;;8.07;100.00
10093;BME280;5085;48.092;11.484;2022-10-31T04:05:43;95592.44;;;8.05;100.00
10093;BME280;5085;48.092;11.484;2022-10-31T04:08:15;95598.06;;;8.03;100.00
10093;BME280;5085;48.092;11.484;2022-10-31T04:10:43;95589.19;;;8.02;100.00
10093;BME280;5085;48.092;11.484;2022-10-31T04:13:14;95588.88;;;7.99;100.00
10093;BME280;5085;48.092;11.484;2022-10-31T04:15:46;95590.19;;;7.96;100.00
10093;BME280;5085;48.092;11.484;2022-10-31T04:18:12;95591.47;;;7.94;100.00
10093;BME280;5085;48.092;11.484;2022-10-31T04:20:40;95589.06;;;7.92;100.00
10093;BME280;5085;48.092;11.484;2022-10-31T04:23:20;95591.19;;;7.90;100.00
10093;BME280;5085;48.092;11.484;2022-10-31T04:25:48;95594.09;;;7.89;100.00
10093;BME280;5085;48.092;11.484;2022-10-31T04:28:16;95593.75;;;7.85;100.00
10093;BME280;5085;48.092;11.484;2022-10-31T04:30:42;95598.56;;;7.83;100.00
10093;BME280;5085;48.092;11.484;2022-10-31T04:33:08;95603.34;;;7.81;100.00
10093;BME280;5085;48.092;11.484;2022-10-31T04:35:35;95601.19;;;7.78;100.00
10093;BME280;5085;48.092;11.484;2022-10-31T04:38:01;95600.59;;;7.76;100.00
10093;BME280;5085;48.092;11.484;2022-10-31T04:40:27;95599.25;;;7.73;100.00
10093;BME280;5085;48.092;11.484;2022-10-31T04:43:11;95603.22;;;7.71;100.00
10093;BME280;5085;48.092;11.484;2022-10-31T04:45:38;95603.47;;;7.69;100.00
10093;BME280;5085;48.092;11.484;2022-10-31T04:48:04;95609.38;;;7.71;100.00
10093;BME280;5085;48.092;11.484;2022-10-31T04:50:33;95604.50;;;7.68;100.00
10093;BME280;5085;48.092;11.484;2022-10-31T04:52:59;95600.47;;;7.66;100.00
10093;BME280;5085;48.092;11.484;2022-10-31T04:55:28;95600.47;;;7.66;100.00
10093;BME280;5085;48.092;11.484;2022-10-31T04:58:18;95599.88;;;7.64;100.00
10093;BME280;5085;48.092;11.484;2022-10-31T05:00:44;95597.44;;;7.62;100.00
10093;BME280;5085;48.092;11.484;2022-10-31T05:03:11;95590.47;;;7.61;100.00
10093;BME280;5085;48.092;11.484;2022-10-31T05:05:38;95597.94;;;7.59;100.00
10093;BME280;5085;48.092;11.484;2022-10-31T05:08:04;95597.13;;;7.59;100.00
10093;BME280;5085;48.092;11.484;2022-10-31T05:10:31;95595.50;;;7.58;100.00
10093;BME280;5085;48.092;11.484;2022-10-31T05:13:00;95597.38;;;7.57;100.00
10093;BME280;5085;48.092;11.484;2022-10-31T05:15:45;95589.56;;;7.56;100.00
10093;BME280;5085;48.092;11.484;2022-10-31T05:18:49;95593.88;;;7.57;100.00
10093;BME280;5085;48.092;11.484;2022-10-31T05:21:33;95598.44;;;7.56;100.00
10093;BME280;5085;48.092;11.484;2022-10-31T05:24:02;95601.94;;;7.57;100.00
10093;BME280;5085;48.092;11.484;2022-10-31T05:26:28;95596.78;;;7.55;100.00
10093;BME280;5085;48.092;11.484;2022-10-31T05:28:55;95599.72;;;7.54;100.00
10093;BME280;5085;48.092;11.484;2022-10-31T05:31:21;95595.66;;;7.51;100.00
10093;BME280;5085;48.092;11.484;2022-10-31T05:33:48;95592.41;;;7.49;100.00
10093;BME280;5085;48.092;11.484;2022-10-31T05:36:33;95582.19;;;7.46;100.00
10093;BME280;5085;48.092;11.484;2022-10-31T05:39:08;95579.75;;;7.44;100.00
10093;BME280;5085;48.092;11.484;2022-10-31T05:41:39;95585.91;;;7.45;100.00
10093;BME280;5085;48.092;11.484;2022-10-31T05:44:25;95588.00;;;7.43;100.00
10093;BME280;5085;48.092;11.484;2022-10-31T05:47:14;95578.63;;;7.40;100.00
10093;BME280;5085;48.092;11.484;2022-10-31T05:49:55;95571.88;;;7.38;100.00
10093;BME280;5085;48.092;11.484;2022-10-31T05:52:39;95571.31;;;7.36;100.00
10093;BME280;5085;48.092;11.484;2022-10-31T05:55:34;95571.53;;;7.34;100.00
10093;BME280;5085;48.092;11.484;2022-10-31T05:58:09;95569.25;;;7.43;100.00
10093;BME280;5085;48.092;11.484;2022-10-31T06:00:37;95569.66;;;7.51;100.00
10093;BME280;5085;48.092;11.484;2022-10-31T06:03:08;95570.25;;;7.54;100.00
10093;BME280;5085;48.092;11.484;2022-10-31T06:06:01;95577.22;;;7.55;100.00
10093;BME280;5085;48.092;11.484;2022-10-31T06:08:35;95573.72;;;7.54;100.00
10093;BME280;5085;48.092;11.484;2022-10-31T06:11:04;95585.84;;;7.57;100.00
10093;BME280;5085;48.092;11.484;2022-10-31T06:13:49;95588.28;;;7.58;100.00
10093;BME280;5085;48.092;11.484;2022-10-31T06:16:21;95587.78;;;7.61;100.00
10093;BME280;5085;48.092;11.484;2022-10-31T06:18:47;95588.94;;;7.65;100.00
10093;BME280;5085;48.092;11.484;2022-10-31T06:21:13;95588.19;;;7.70;100.00
10093;BME280;5085;48.092;11.484;2022-10-31T06:23:39;95594.69;;;7.74;100.00
10093;BME280;5085;48.092;11.484;2022-10-31T06:26:24;95592.56;;;7.76;100.00
10093;BME280;5085;48.092;11.484;2022-10-31T06:28:52;95586.72;;;7.79;100.00
10093;BME280;5085;48.092;11.484;2022-10-31T06:31:56;95596.44;;;7.85;100.00
10093;BME280;5085;48.092;11.484;2022-10-31T06:34:22;95588.72;;;7.89;100.00
10093;BME280;5085;48.092;11.484;2022-10-31T06:36:48;95589.84;;;7.93;100.00
10093;BME280;5085;48.092;11.484;2022-10-31T06:39:15;95587.50;;;7.96;100.00
10093;BME280;5085;48.092;11.484;2022-10-31T06:41:41;95580.84;;;7.99;100.00
10093;BME280;5085;48.092;11.484;2022-10-31T06:44:09;95585.47;;;8.04;100.00
10093;BME280;5085;48.092;11.484;2022-10-31T06:46:55;95589.03;;;8.09;100.00
10093;BME280;5085;48.092;11.484;2022-10-31T06:49:51;95589.91;;;8.15;100.00
10093;BME280;5085;48.092;11.484;2022-10-31T06:52:21;95585.66;;;8.19;100.00
10093;BME280;5085;48.092;11.484;2022-10-31T06:54:49;95576.88;;;8.23;100.00
10093;BME280;5085;48.092;11.484;2022-10-31T06:57:15;95573.44;;;8.28;100.00
10093;BME280;5085;48.092;11.484;2022-10-31T06:59:41;95585.06;;;8.34;100.00
10093;BME280;5085;48.092;11.484;2022-10-31T07:02:15;95592.94;;;8.40;100.00
10093;BME280;5085;48.092;11.484;2022-10-31T07:04:42;95593.56;;;8.47;100.00
10093;BME280;5085;48.092;11.484;2022-10-31T07:07:12;95594.22;;;8.55;100.00
10093;BME280;5085;48.092;11.484;2022-10-31T07:09:39;95592.13;;;8.62;100.00
10093;BME280;5085;48.092;11.484;2022-10-31T07:12:05;95599.50;;;8.71;100.00
10093;BME280;5085;48.092;11.484;2022-10-31T07:14:35;95597.50;;;8.84;100.00
10093;BME280;5085;48.092;11.484;2022-10-31T07:17:02;95589.91;;;9.02;100.00
10093;BME280;5085;48.092;11.484;2022-10-31T07:19:33;95589.06;;;9.29;100.00
10093;BME280;5085;48.092;11.484;2022-10-31T07:21:59;95591.78;;;9.61;100.00
10093;BME280;5085;48.092;11.484;2022-10-31T07:24:28;95600.72;;;10.09;100.00
10093;BME280;5085;48.092;11.484;2022-10-31T07:27:13;95602.97;;;10.75;100.00
10093;BME280;5085;48.092;11.484;2022-10-31T07:29:39;95601.25;;;11.26;100.00
10093;BME280;5085;48.092;11.484;2022-10-31T07:32:05;95601.00;;;11.64;100.00
10093;BME280;5085;48.092;11.484;2022-10-31T07:34:33;95603.72;;;11.89;100.00
10093;BME280;5085;48.092;11.484;2022-10-31T07:37:37;95606.34;;;12.35;100.00
10093;BME280;5085;48.092;11.484;2022-10-31T07:40:06;95597.00;;;12.82;100.00
10093;BME280;5085;48.092;11.484;2022-10-31T07:42:37;95599.47;;;13.38;100.00
10093;BME280;5085;48.092;11.484;2022-10-31T07:45:04;95599.06;;;14.18;100.00
10093;BME280;5085;48.092;11.484;2022-10-31T07:48:06;95606.25;;;15.48;100.00
10093;BME280;5085;48.092;11.484;2022-10-31T07:50:50;95598.47;;;16.72;100.00
10093;BME280;5085;48.092;11.484;2022-10-31T07:53:35;95597.44;;;17.95;95.56
10093;BME280;5085;48.092;11.484;2022-10-31T07:56:11;95597.69;;;18.92;88.30
10093;BME280;5085;48.092;11.484;2022-10-31T07:58:37;95603.81;;;19.81;81.42
10093;BME280;5085;48.092;11.484;2022-10-31T08:01:03;95600.97;;;20.59;73.90
10093;BME280;5085;48.092;11.484;2022-10-31T08:03:38;95592.78;;;21.27;69.38
10093;BME280;5085;48.092;11.484;2022-10-31T08:06:24;95596.25;;;21.87;64.72
10093;BME280;5085;48.092;11.484;2022-10-31T08:09:09;95588.25;;;22.36;60.76
10093;BME280;5085;48.092;11.484;2022-10-31T08:11:35;95593.41;;;22.83;59.70
10093;BME280;5085;48.092;11.484;2022-10-31T08:14:02;95592.31;;;23.33;58.10
10093;BME280;5085;48.092;11.484;2022-10-31T08:16:28;95586.28;;;23.80;55.50
10093;BME280;5085;48.092;11.484;2022-10-31T08:18:59;95588.84;;;24.29;53.65
10093;BME280;5085;48.092;11.484;2022-10-31T08:21:25;95587.19;;;24.68;51.08
10093;BME280;5085;48.092;11.484;2022-10-31T08:23:51;95589.81;;;25.08;50.16
10093;BME280;5085;48.092;11.484;2022-10-31T08:26:19;95580.78;;;25.43;48.83
10093;BME280;5085;48.092;11.484;2022-10-31T08:28:45;95581.06;;;25.73;47.29
10093;BME280;5085;48.092;11.484;2022-10-31T08:31:12;95579.16;;;25.93;45.92
10093;BME280;5085;48.092;11.484;2022-10-31T08:33:38;95573.91;;;26.07;45.86
10093;BME280;5085;48.092;11.484;2022-10-31T08:36:23;95569.47;;;26.03;45.49
10093;BME280;5085;48.092;11.484;2022-10-31T08:38:54;95567.00;;;25.78;45.50
10093;BME280;5085;48.092;11.484;2022-10-31T08:41:21;95565.34;;;25.58;46.21
10093;BME280;5085;48.092;11.484;2022-10-31T08:43:47;95561.56;;;25.47;47.10
10093;BME280;5085;48.092;11.484;2022-10-31T08:46:14;95560.63;;;25.58;46.15
10093;BME280;5085;48.092;11.484;2022-10-31T08:48:41;95559.44;;;25.75;46.23
10093;BME280;5085;48.092;11.484;2022-10-31T08:51:09;95549.44;;;26.06;46.17
10093;BME280;5085;48.092;11.484;2022-10-31T08:53:36;95553.34;;;26.24;45.54
10093;BME280;5085;48.092;11.484;2022-10-31T08:56:20;95546.00;;;26.32;46.23
10093;BME280;5085;48.092;11.484;2022-10-31T08:58:48;95544.91;;;26.56;44.27
10093;BME280;5085;48.092;11.484;2022-10-31T09:01:14;95546.63;;;26.64;43.03
10093;BME280;5085;48.092;11.484;2022-10-31T09:03:42;95544.34;;;26.70;43.40
10093;BME280;5085;48.092;11.484;2022-10-31T09:06:09;95539.06;;;26.41;42.82
10093;BME280;5085;48.092;11.484;2022-10-31T09:08:36;95541.44;;;25.81;43.79
10093;BME280;5085;48.092;11.484;2022-10-31T09:11:03;95528.59;;;25.18;45.83
10093;BME280;5085;48.092;11.484;2022-10-31T09:13:48;95538.47;;;24.72;46.40
10093;BME280;5085;48.092;11.484;2022-10-31T09:16:40;95536.69;;;24.80;46.58
10093;BME280;5085;48.092;11.484;2022-10-31T09:19:11;95531.03;;;25.39;45.22
10093;BME280;5085;48.092;11.484;2022-10-31T09:21:38;95529.53;;;25.77;45.47
10093;BME280;5085;48.092;11.484;2022-10-31T09:24:04;95529.53;;;25.97;44.52
10093;BME280;5085;48.092;11.484;2022-10-31T09:26:33;95526.81;;;26.20;44.87
10093;BME280;5085;48.092;11.484;2022-10-31T09:29:23;95526.78;;;25.97;44.80
10093;BME280;5085;48.092;11.484;2022-10-31T09:31:56;95522.56;;;25.83;46.02
10093;BME280;5085;48.092;11.484;2022-10-31T09:34:27;95518.66;;;25.68;46.19
10093;BME280;5085;48.092;11.484;2022-10-31T09:37:04;95517.53;;;25.34;46.71
10093;BME280;5085;48.092;11.484;2022-10-31T09:39:34;95509.50;;;25.10;47.29
10093;BME280;5085;48.092;11.484;2022-10-31T09:45:13;95516.41;;;25.04;48.25
10093;BME280;5085;48.092;11.484;2022-10-31T09:51:22;95500.59;;;25.01;48.05
10093;BME280;5085;48.092;11.484;2022-10-31T09:54:20;95498.47;;;25.10;47.53
10093;BME280;5085;48.092;11.484;2022-10-31T09:56:48;95504.91;;;25.33;46.80
10093;BME280;5085;48.092;11.484;2022-10-31T09:59:26;95494.63;;;25.50;46.65
10093;BME280;5085;48.092;11.484;2022-10-31T10:02:02;95505.47;;;25.78;46.29
10093;BME280;5085;48.092;11.484;2022-10-31T10:04:38;95496.38;;;26.16;45.52
10093;BME280;5085;48.092;11.484;2022-10-31T10:16:27;95496.53;;;27.15;43.30
10093;BME280;5085;48.092;11.484;2022-10-31T10:21:57;95497.72;;;27.44;41.15
10093;BME280;5085;48.092;11.484;2022-10-31T10:24:48;95492.25;;;26.95;41.53
10093;BME280;5085;48.092;11.484;2022-10-31T10:30:13;95486.81;;;25.71;44.97
10093;BME280;5085;48.092;11.484;2022-10-31T10:32:51;95483.16;;;25.28;45.56
10093;BME280;5085;48.092;11.484;2022-10-31T10:35:39;95481.38;;;25.04;47.25
10093;BME280;5085;48.092;11.484;2022-10-31T10:38:16;95472.00;;;24.89;46.63
10093;BME280;5085;48.092;11.484;2022-10-31T10:40:44;95473.41;;;24.83;45.94
10093;BME280;5085;48.092;11.484;2022-10-31T10:48:55;95467.38;;;24.30;47.44
10093;BME280;5085;48.092;11.484;2022-10-31T10:55:03;95461.50;;;23.72;48.84
10093;BME280;5085;48.092;11.484;2022-10-31T10:59:51;95451.66;;;23.31;51.83
10093;BME280;5085;48.092;11.484;2022-10-31T11:02:20;95450.75;;;23.14;53.92
10093;BME280;5085;48.092;11.484;2022-10-31T11:04:51;95447.16;;;22.98;52.69
10093;BME280;5085;48.092;11.484;2022-10-31T11:07:18;95450.91;;;22.93;52.20
10093;BME280;5085;48.092;11.484;2022-10-31T11:09:44;95441.56;;;22.94;52.26
10093;BME280;5085;48.092;11.484;2022-10-31T11:12:24;95435.44;;;23.13;51.49
10093;BME280;5085;48.092;11.484;2022-10-31T11:14:55;95435.31;;;23.78;49.51
10093;BME280;5085;48.092;11.484;2022-10-31T11:17:33;95430.59;;;25.05;47.46
10093;BME280;5085;48.092;11.484;2022-10-31T11:22:41;95430.69;;;27.24;43.36
10093;BME280;5085;48.092;11.484;2022-10-31T11:25:25;95427.72;;;28.04;42.01
10093;BME280;5085;48.092;11.484;2022-10-31T11:28:03;95426.50;;;28.38;40.07
10093;BME280;5085;48.092;11.484;2022-10-31T11:30:30;95432.63;;;28.21;39.57
10093;BME280;5085;48.092;11.484;2022-10-31T11:33:00;95422.19;;;28.04;38.52
10093;BME280;5085;48.092;11.484;2022-10-31T11:35:27;95422.88;;;27.63;38.28
10093;BME280;5085;48.092;11.484;2022-10-31T11:37:56;95418.38;;;27.52;39.07
10093;BME280;5085;48.092;11.484;2022-10-31T11:40:25;95408.44;;;27.17;39.11
10093;BME280;5085;48.092;11.484;2022-10-31T11:42:54;95405.09;;;27.04;39.28
10093;BME280;5085;48.092;11.484;2022-10-31T11:47:50;95409.47;;;27.35;38.30
10093;BME280;5085;48.092;11.484;2022-10-31T11:50:23;95406.91;;;27.20;38.83
10093;BME280;5085;48.092;11.484;2022-10-31T11:52:51;95403.88;;;26.75;38.97
10093;BME280;5085;48.092;11.484;2022-10-31T11:55:32;95398.81;;;26.31;40.10
10093;BME280;5085;48.092;11.484;2022-10-31T11:57:58;95391.34;;;25.66;41.01
10093;BME280;5085;48.092;11.484;2022-10-31T12:00:25;95383.66;;;25.17;41.59
10093;BME280;5085;48.092;11.484;2022-10-31T12:03:06;95373.03;;;24.65;43.38
10093;BME280;5085;48.092;11.484;2022-10-31T12:05:37;95377.22;;;24.11;44.58
10093;BME280;5085;48.092;11.484;2022-10-31T12:08:08;95372.47;;;23.64;45.60
10093;BME280;5085;48.092;11.484;2022-10-31T12:10:58;95366.59;;;23.22;46.69
10093;BME280;5085;48.092;11.484;2022-10-31T12:13:39;95369.09;;;22.87;47.21
10093;BME280;5085;48.092;11.484;2022-10-31T12:19:03;95370.06;;;22.42;48.76
10093;BME280;5085;48.092;11.484;2022-10-31T12:21:52;95368.81;;;22.27;50.11
10093;BME280;5085;48.092;11.484;2022-10-31T12:24:37;95363.78;;;22.17;50.57
10093;BME280;5085;48.092;11.484;2022-10-31T12:27:22;95369.03;;;22.10;51.04
10093;BME280;5085;48.092;11.484;2022-10-31T12:32:31;95361.91;;;22.09;51.12
10093;BME280;5085;48.092;11.484;2022-10-31T12:56:37;95335.06;;;25.71;43.57
10093;BME280;5085;48.092;11.484;2022-10-31T12:59:26;95327.38;;;26.53;42.37
10093;BME280;5085;48.092;11.484;2022-10-31T13:02:23;95323.41;;;26.80;41.20
10093;BME280;5085;48.092;11.484;2022-10-31T13:04:55;95315.88;;;27.07;40.91
10093;BME280;5085;48.092;11.484;2022-10-31T13:08:26;95319.09;;;26.83;40.37
10093;BME280;5085;48.092;11.484;2022-10-31T13:10:39;95313.09;;;26.24;41.45
10093;BME280;5085;48.092;11.484;2022-10-31T13:13:24;95311.78;;;25.91;42.42
10093;BME280;5085;48.092;11.484;2022-10-31T13:15:56;95313.88;;;25.56;42.91
10093;BME280;5085;48.092;11.484;2022-10-31T13:19:17;95306.94;;;25.04;44.24
10093;BME280;5085;48.092;11.484;2022-10-31T13:24:33;95295.28;;;24.20;47.71
10093;BME280;5085;48.092;11.484;2022-10-31T13:27:04;95298.34;;;23.84;48.49
10093;BME280;5085;48.092;11.484;2022-10-31T13:29:55;95296.16;;;23.45;48.55
10093;BME280;5085;48.092;11.484;2022-10-31T13:32:26;95295.81;;;23.03;48.94
10093;BME280;5085;48.092;11.484;2022-10-31T13:34:56;95290.88;;;22.68;49.90
10093;BME280;5085;48.092;11.484;2022-10-31T13:43:17;95295.91;;;22.14;52.85
10093;BME280;5085;48.092;11.484;2022-10-31T13:45:51;95288.31;;;21.86;53.97
10093;BME280;5085;48.092;11.484;2022-10-31T13:50:59;95277.78;;;21.52;55.93
10093;BME280;5085;48.092;11.484;2022-10-31T13:53:35;95285.06;;;21.35;57.09
10093;BME280;5085;48.092;11.484;2022-10-31T13:58:34;95276.44;;;21.12;59.37
10093;BME280;5085;48.092;11.484;2022-10-31T14:03:36;95274.75;;;20.87;62.31
10093;BME280;5085;48.092;11.484;2022-10-31T14:06:03;95264.13;;;20.85;62.39
10093;BME280;5085;48.092;11.484;2022-10-31T14:08:33;95268.00;;;20.84;61.59
10093;BME280;5085;48.092;11.484;2022-10-31T14:11:00;95263.44;;;20.88;60.77
10093;BME280;5085;48.092;11.484;2022-10-31T14:13:34;95262.91;;;20.95;60.12
10093;BME280;5085;48.092;11.484;2022-10-31T14:16:05;95260.31;;;20.99;60.38
10093;BME280;5085;48.092;11.484;2022-10-31T14:18:41;95265.78;;;20.99;60.18
10093;BME280;5085;48.092;11.484;2022-10-31T14:21:27;95263.72;;;20.95;60.36
10093;BME280;5085;48.092;11.484;2022-10-31T14:23:55;95258.47;;;20.90;61.13
10093;BME280;5085;48.092;11.484;2022-10-31T14:28:56;95239.25;;;20.78;62.41
10093;BME280;5085;48.092;11.484;2022-10-31T14:40:24;95231.44;;;20.26;65.24
10093;BME280;5085;48.092;11.484;2022-10-31T14:46:06;95225.16;;;20.05;68.14
10093;BME280;5085;48.092;11.484;2022-10-31T14:51:22;95220.28;;;19.89;70.06
10093;BME280;5085;48.092;11.484;2022-10-31T14:53:56;95223.53;;;19.83;71.53
10093;BME280;5085;48.092;11.484;2022-10-31T14:56:46;95221.06;;;19.69;74.41
10093;BME280;5085;48.092;11.484;2022-10-31T14:59:16;95220.78;;;19.53;76.32
10093;BME280;5085;48.092;11.484;2022-10-31T15:04:37;95210.63;;;19.24;80.77
10093;BME280;5085;48.092;11.484;2022-10-31T15:07:16;95207.97;;;19.07;81.68
10093;BME280;5085;48.092;11.484;2022-10-31T15:09:43;95204.47;;;18.97;82.63
10093;BME280;5085;48.092;11.484;2022-10-31T15:12:27;95201.47;;;18.90;84.02
10093;BME280;5085;48.092;11.484;2022-10-31T15:14:54;95200.03;;;18.84;85.99
10093;BME280;5085;48.092;11.484;2022-10-31T15:17:23;95205.16;;;18.77;86.98
10093;BME280;5085;48.092;11.484;2022-10-31T15:19:51;95201.34;;;18.69;87.70
10093;BME280;5085;48.092;11.484;2022-10-31T15:22:19;95199.88;;;18.63;88.26
10093;BME280;5085;48.092;11.484;2022-10-31T15:24:48;95194.59;;;18.58;88.45
10093;BME280;5085;48.092;11.484;2022-10-31T15:27:16;95189.63;;;18.52;89.83
10093;BME280;5085;48.092;11.484;2022-10-31T15:29:54;95192.34;;;18.43;91.17
10093;BME280;5085;48.092;11.484;2022-10-31T15:32:25;95200.38;;;18.31;93.57
10093;BME280;5085;48.092;11.484;2022-10-31T15:34:52;95195.09;;;18.17;96.01
10093;BME280;5085;48.092;11.484;2022-10-31T15:37:21;95192.06;;;18.01;98.62
10093;BME280;5085;48.092;11.484;2022-10-31T15:39:48;95191.25;;;17.83;99.42
10093;BME280;5085;48.092;11.484;2022-10-31T15:42:28;95191.34;;;17.69;100.00
10093;BME280;5085;48.092;11.484;2022-10-31T15:45:04;95197.75;;;17.56;100.00